sensor_id;sensor_type;location;lat;lon;timestamp;P1;durP1;ratioP1;P2;durP2;ratioP2
58466;SDS011;44255;49.244;7.726;2022-09-09T03:32:49;3.22;;;1.00;;
58466;SDS011;44255;49.244;7.726;2022-09-09T03:35:14;1.67;;;1.00;;
58466;SDS011;44255;49.244;7.726;2022-09-09T03:37:40;4.90;;;0.90;;
58466;SDS011;44255;49.244;7.726;2022-09-09T03:40:06;1.95;;;0.90;;
58466;SDS011;44255;49.244;7.726;2022-09-09T03:42:34;2.67;;;0.80;;
58466;SDS011;44255;49.244;7.726;2022-09-09T03:45:01;3.42;;;0.90;;
58466;SDS011;44255;49.244;7.726;2022-09-09T03:47:27;3.03;;;0.80;;
58466;SDS011;44255;49.244;7.726;2022-09-09T03:49:54;2.65;;;0.85;;
58466;SDS011;44255;49.244;7.726;2022-09-09T03:52:19;1.60;;;0.80;;
58466;SDS011;44255;49.244;7.726;2022-09-09T03:54:46;3.17;;;1.00;;
58466;SDS011;44255;49.244;7.726;2022-09-09T03:57:12;3.10;;;1.02;;
58466;SDS011;44255;49.244;7.726;2022-09-09T03:59:41;2.15;;;1.00;;
58466;SDS011;44255;49.244;7.726;2022-09-09T04:02:06;4.10;;;0.93;;
58466;SDS011;44255;49.244;7.726;2022-09-09T04:04:31;1.67;;;0.83;;
58466;SDS011;44255;49.244;7.726;2022-09-09T04:06:57;2.20;;;0.73;;
58466;SDS011;44255;49.244;7.726;2022-09-09T04:09:22;2.97;;;1.00;;
58466;SDS011;44255;49.244;7.726;2022-09-09T04:11:48;4.00;;;1.10;;
58466;SDS011;44255;49.244;7.726;2022-09-09T04:16:39;1.73;;;0.90;;
58466;SDS011;44255;49.244;7.726;2022-09-09T04:19:07;1.85;;;1.02;;
58466;SDS011;44255;49.244;7.726;2022-09-09T04:21:33;2.40;;;0.85;;
58466;SDS011;44255;49.244;7.726;2022-09-09T04:23:58;1.70;;;1.00;;
58466;SDS011;44255;49.244;7.726;2022-09-09T04:26:24;3.40;;;1.00;;
58466;SDS011;44255;49.244;7.726;2022-09-09T04:28:49;5.35;;;1.05;;
58466;SDS011;44255;49.244;7.726;2022-09-09T04:31:19;4.88;;;1.50;;
58466;SDS011;44255;49.244;7.726;2022-09-09T04:33:47;2.88;;;1.17;;
58466;SDS011;44255;49.244;7.726;2022-09-09T04:36:13;3.63;;;1.40;;
58466;SDS011;44255;49.244;7.726;2022-09-09T04:38:38;3.38;;;1.00;;
58466;SDS011;44255;49.244;7.726;2022-09-09T04:41:04;2.60;;;0.90;;
58466;SDS011;44255;49.244;7.726;2022-09-09T04:45:55;3.65;;;0.70;;
58466;SDS011;44255;49.244;7.726;2022-09-09T04:48:21;1.95;;;1.00;;
58466;SDS011;44255;49.244;7.726;2022-09-09T04:51:00;4.20;;;1.17;;
58466;SDS011;44255;49.244;7.726;2022-09-09T04:53:27;4.20;;;1.10;;
58466;SDS011;44255;49.244;7.726;2022-09-09T04:56:00;4.22;;;1.27;;
58466;SDS011;44255;49.244;7.726;2022-09-09T04:58:27;3.42;;;0.90;;
58466;SDS011;44255;49.244;7.726;2022-09-09T05:00:52;2.67;;;1.17;;
58466;SDS011;44255;49.244;7.726;2022-09-09T05:03:18;2.67;;;1.27;;
58466;SDS011;44255;49.244;7.726;2022-09-09T05:05:44;3.83;;;1.08;;
58466;SDS011;44255;49.244;7.726;2022-09-09T05:08:09;4.00;;;1.07;;
58466;SDS011;44255;49.244;7.726;2022-09-09T05:10:36;5.18;;;1.25;;
58466;SDS011;44255;49.244;7.726;2022-09-09T05:13:03;1.83;;;1.20;;
58466;SDS011;44255;49.244;7.726;2022-09-09T05:15:29;4.55;;;1.50;;
58466;SDS011;44255;49.244;7.726;2022-09-09T05:17:58;3.88;;;1.10;;
58466;SDS011;44255;49.244;7.726;2022-09-09T05:20:25;3.42;;;1.33;;
58466;SDS011;44255;49.244;7.726;2022-09-09T05:22:52;2.97;;;0.90;;
58466;SDS011;44255;49.244;7.726;2022-09-09T05:25:19;2.33;;;1.08;;
58466;SDS011;44255;49.244;7.726;2022-09-09T05:27:44;1.92;;;0.90;;
58466;SDS011;44255;49.244;7.726;2022-09-09T05:30:09;5.03;;;1.90;;
58466;SDS011;44255;49.244;7.726;2022-09-09T05:32:35;5.10;;;1.50;;
58466;SDS011;44255;49.244;7.726;2022-09-09T05:35:01;6.30;;;1.40;;
58466;SDS011;44255;49.244;7.726;2022-09-09T05:37:26;5.18;;;1.15;;
58466;SDS011;44255;49.244;7.726;2022-09-09T05:39:51;2.43;;;1.10;;
58466;SDS011;44255;49.244;7.726;2022-09-09T05:42:18;2.20;;;1.30;;
58466;SDS011;44255;49.244;7.726;2022-09-09T05:44:43;2.10;;;1.00;;
58466;SDS011;44255;49.244;7.726;2022-09-09T05:49:35;2.13;;;1.13;;
58466;SDS011;44255;49.244;7.726;2022-09-09T05:52:00;3.17;;;1.00;;
58466;SDS011;44255;49.244;7.726;2022-09-09T05:54:25;3.20;;;1.60;;
58466;SDS011;44255;49.244;7.726;2022-09-09T05:56:51;6.60;;;1.70;;
58466;SDS011;44255;49.244;7.726;2022-09-09T05:59:17;4.20;;;1.40;;
58466;SDS011;44255;49.244;7.726;2022-09-09T06:01:43;2.60;;;0.82;;
58466;SDS011;44255;49.244;7.726;2022-09-09T06:04:10;1.77;;;1.13;;
58466;SDS011;44255;49.244;7.726;2022-09-09T06:06:36;4.30;;;1.17;;
58466;SDS011;44255;49.244;7.726;2022-09-09T06:09:04;3.47;;;1.02;;
58466;SDS011;44255;49.244;7.726;2022-09-09T06:11:35;3.22;;;1.00;;
58466;SDS011;44255;49.244;7.726;2022-09-09T06:14:05;1.52;;;0.90;;
58466;SDS011;44255;49.244;7.726;2022-09-09T06:16:31;3.10;;;1.33;;
58466;SDS011;44255;49.244;7.726;2022-09-09T06:19:00;3.75;;;1.42;;
58466;SDS011;44255;49.244;7.726;2022-09-09T06:23:55;3.15;;;1.00;;
58466;SDS011;44255;49.244;7.726;2022-09-09T06:26:22;2.15;;;1.00;;
58466;SDS011;44255;49.244;7.726;2022-09-09T06:28:50;5.13;;;1.17;;
58466;SDS011;44255;49.244;7.726;2022-09-09T06:31:18;2.25;;;1.25;;
58466;SDS011;44255;49.244;7.726;2022-09-09T06:33:48;6.72;;;1.20;;
58466;SDS011;44255;49.244;7.726;2022-09-09T06:36:31;4.47;;;1.33;;
58466;SDS011;44255;49.244;7.726;2022-09-09T06:38:58;3.58;;;1.10;;
58466;SDS011;44255;49.244;7.726;2022-09-09T06:41:25;2.70;;;1.50;;
58466;SDS011;44255;49.244;7.726;2022-09-09T06:43:52;4.07;;;1.30;;
58466;SDS011;44255;49.244;7.726;2022-09-09T06:46:18;3.70;;;1.00;;
58466;SDS011;44255;49.244;7.726;2022-09-09T06:48:45;5.40;;;1.30;;
58466;SDS011;44255;49.244;7.726;2022-09-09T06:51:15;3.78;;;1.30;;
58466;SDS011;44255;49.244;7.726;2022-09-09T06:53:46;4.85;;;1.20;;
58466;SDS011;44255;49.244;7.726;2022-09-09T06:56:17;5.30;;;1.27;;
58466;SDS011;44255;49.244;7.726;2022-09-09T06:59:00;3.95;;;1.00;;
58466;SDS011;44255;49.244;7.726;2022-09-09T07:01:29;5.65;;;1.23;;
58466;SDS011;44255;49.244;7.726;2022-09-09T07:03:56;5.70;;;1.30;;
58466;SDS011;44255;49.244;7.726;2022-09-09T07:06:28;5.13;;;1.40;;
58466;SDS011;44255;49.244;7.726;2022-09-09T07:08:59;2.75;;;1.10;;
58466;SDS011;44255;49.244;7.726;2022-09-09T07:11:27;3.60;;;1.92;;
58466;SDS011;44255;49.244;7.726;2022-09-09T07:13:54;6.18;;;1.98;;
58466;SDS011;44255;49.244;7.726;2022-09-09T07:16:22;5.78;;;2.03;;
58466;SDS011;44255;49.244;7.726;2022-09-09T07:18:49;7.65;;;2.50;;
58466;SDS011;44255;49.244;7.726;2022-09-09T07:21:15;8.23;;;3.22;;
58466;SDS011;44255;49.244;7.726;2022-09-09T07:23:41;10.97;;;1.97;;
58466;SDS011;44255;49.244;7.726;2022-09-09T07:26:13;8.85;;;1.90;;
58466;SDS011;44255;49.244;7.726;2022-09-09T07:28:40;5.72;;;1.30;;
58466;SDS011;44255;49.244;7.726;2022-09-09T07:31:07;9.52;;;1.58;;
58466;SDS011;44255;49.244;7.726;2022-09-09T07:33:38;6.32;;;1.50;;
58466;SDS011;44255;49.244;7.726;2022-09-09T07:36:18;8.95;;;2.10;;
58466;SDS011;44255;49.244;7.726;2022-09-09T07:38:47;7.72;;;1.52;;
58466;SDS011;44255;49.244;7.726;2022-09-09T07:41:21;6.55;;;1.80;;
58466;SDS011;44255;49.244;7.726;2022-09-09T07:43:51;8.07;;;1.60;;
58466;SDS011;44255;49.244;7.726;2022-09-09T07:46:19;10.30;;;1.70;;
58466;SDS011;44255;49.244;7.726;2022-09-09T07:48:46;5.00;;;1.15;;
58466;SDS011;44255;49.244;7.726;2022-09-09T07:51:17;9.80;;;1.95;;
58466;SDS011;44255;49.244;7.726;2022-09-09T07:53:46;9.35;;;1.65;;
58466;SDS011;44255;49.244;7.726;2022-09-09T07:56:13;7.10;;;1.30;;
58466;SDS011;44255;49.244;7.726;2022-09-09T07:58:41;11.02;;;1.92;;
58466;SDS011;44255;49.244;7.726;2022-09-09T08:01:13;8.90;;;1.70;;
58466;SDS011;44255;49.244;7.726;2022-09-09T08:03:43;7.35;;;1.75;;
58466;SDS011;44255;49.244;7.726;2022-09-09T08:06:10;10.90;;;1.73;;
58466;SDS011;44255;49.244;7.726;2022-09-09T08:08:37;10.05;;;1.75;;
58466;SDS011;44255;49.244;7.726;2022-09-09T08:11:11;9.75;;;1.60;;
58466;SDS011;44255;49.244;7.726;2022-09-09T08:13:39;11.73;;;2.15;;
58466;SDS011;44255;49.244;7.726;2022-09-09T08:16:16;13.10;;;2.00;;
58466;SDS011;44255;49.244;7.726;2022-09-09T08:18:43;10.25;;;1.80;;
58466;SDS011;44255;49.244;7.726;2022-09-09T08:21:13;9.60;;;1.75;;
58466;SDS011;44255;49.244;7.726;2022-09-09T08:23:43;15.57;;;1.98;;
58466;SDS011;44255;49.244;7.726;2022-09-09T08:26:15;13.02;;;1.83;;
58466;SDS011;44255;49.244;7.726;2022-09-09T08:28:43;8.55;;;1.48;;
58466;SDS011;44255;49.244;7.726;2022-09-09T08:31:12;12.15;;;1.85;;
58466;SDS011;44255;49.244;7.726;2022-09-09T08:33:40;13.38;;;2.00;;
58466;SDS011;44255;49.244;7.726;2022-09-09T08:36:08;11.95;;;1.60;;
58466;SDS011;44255;49.244;7.726;2022-09-09T08:38:35;12.27;;;1.70;;
58466;SDS011;44255;49.244;7.726;2022-09-09T08:43:58;12.82;;;1.77;;
58466;SDS011;44255;49.244;7.726;2022-09-09T08:49:24;9.70;;;1.45;;
58466;SDS011;44255;49.244;7.726;2022-09-09T08:51:56;9.13;;;2.33;;
58466;SDS011;44255;49.244;7.726;2022-09-09T08:54:22;6.28;;;1.60;;
58466;SDS011;44255;49.244;7.726;2022-09-09T08:59:15;11.98;;;2.00;;
58466;SDS011;44255;49.244;7.726;2022-09-09T09:04:37;8.75;;;1.48;;
58466;SDS011;44255;49.244;7.726;2022-09-09T09:07:20;9.05;;;1.65;;
58466;SDS011;44255;49.244;7.726;2022-09-09T09:12:40;8.13;;;1.35;;
58466;SDS011;44255;49.244;7.726;2022-09-09T09:15:14;8.52;;;1.42;;
58466;SDS011;44255;49.244;7.726;2022-09-09T09:17:43;7.85;;;1.20;;
58466;SDS011;44255;49.244;7.726;2022-09-09T09:20:12;10.97;;;1.47;;
58466;SDS011;44255;49.244;7.726;2022-09-09T09:22:44;7.80;;;1.60;;
58466;SDS011;44255;49.244;7.726;2022-09-09T09:25:21;7.30;;;1.42;;
58466;SDS011;44255;49.244;7.726;2022-09-09T09:27:59;9.75;;;1.48;;
58466;SDS011;44255;49.244;7.726;2022-09-09T09:35:42;8.77;;;1.60;;
58466;SDS011;44255;49.244;7.726;2022-09-09T09:40:52;8.63;;;1.48;;
58466;SDS011;44255;49.244;7.726;2022-09-09T09:43:22;8.27;;;1.30;;
58466;SDS011;44255;49.244;7.726;2022-09-09T09:45:51;7.50;;;1.63;;
58466;SDS011;44255;49.244;7.726;2022-09-09T09:48:16;5.60;;;1.57;;
58466;SDS011;44255;49.244;7.726;2022-09-09T09:50:55;8.33;;;1.40;;
58466;SDS011;44255;49.244;7.726;2022-09-09T09:53:32;8.55;;;1.60;;
58466;SDS011;44255;49.244;7.726;2022-09-09T09:56:06;11.32;;;1.73;;
58466;SDS011;44255;49.244;7.726;2022-09-09T10:01:18;8.27;;;1.33;;
58466;SDS011;44255;49.244;7.726;2022-09-09T10:03:50;6.10;;;1.00;;
58466;SDS011;44255;49.244;7.726;2022-09-09T10:06:16;7.82;;;1.40;;
58466;SDS011;44255;49.244;7.726;2022-09-09T10:08:45;4.70;;;1.20;;
58466;SDS011;44255;49.244;7.726;2022-09-09T10:13:47;6.27;;;1.13;;
58466;SDS011;44255;49.244;7.726;2022-09-09T10:16:32;6.93;;;1.13;;
58466;SDS011;44255;49.244;7.726;2022-09-09T10:19:13;6.13;;;1.00;;
58466;SDS011;44255;49.244;7.726;2022-09-09T10:21:56;10.07;;;1.80;;
58466;SDS011;44255;49.244;7.726;2022-09-09T10:24:33;8.75;;;1.38;;
58466;SDS011;44255;49.244;7.726;2022-09-09T10:27:23;7.65;;;1.20;;
58466;SDS011;44255;49.244;7.726;2022-09-09T10:32:48;6.68;;;1.45;;
58466;SDS011;44255;49.244;7.726;2022-09-09T10:35:27;7.60;;;1.83;;
58466;SDS011;44255;49.244;7.726;2022-09-09T10:43:27;11.77;;;1.27;;
58466;SDS011;44255;49.244;7.726;2022-09-09T10:49:18;7.00;;;1.38;;
58466;SDS011;44255;49.244;7.726;2022-09-09T10:52:02;4.95;;;1.20;;
58466;SDS011;44255;49.244;7.726;2022-09-09T10:54:46;7.53;;;1.55;;
58466;SDS011;44255;49.244;7.726;2022-09-09T10:58:02;6.55;;;1.15;;
58466;SDS011;44255;49.244;7.726;2022-09-09T11:02:57;11.48;;;1.63;;
58466;SDS011;44255;49.244;7.726;2022-09-09T11:05:40;13.23;;;1.85;;
58466;SDS011;44255;49.244;7.726;2022-09-09T11:08:10;11.05;;;1.83;;
58466;SDS011;44255;49.244;7.726;2022-09-09T11:13:26;9.52;;;1.70;;
58466;SDS011;44255;49.244;7.726;2022-09-09T11:16:05;9.13;;;1.52;;
58466;SDS011;44255;49.244;7.726;2022-09-09T11:18:36;7.47;;;1.30;;
58466;SDS011;44255;49.244;7.726;2022-09-09T11:21:12;6.63;;;1.38;;
58466;SDS011;44255;49.244;7.726;2022-09-09T11:23:48;9.57;;;1.80;;
58466;SDS011;44255;49.244;7.726;2022-09-09T11:26:27;5.80;;;1.95;;
58466;SDS011;44255;49.244;7.726;2022-09-09T11:37:22;4.35;;;1.20;;
58466;SDS011;44255;49.244;7.726;2022-09-09T11:40:26;5.47;;;0.90;;
58466;SDS011;44255;49.244;7.726;2022-09-09T11:43:15;3.78;;;1.00;;
58466;SDS011;44255;49.244;7.726;2022-09-09T11:45:43;3.03;;;0.90;;
58466;SDS011;44255;49.244;7.726;2022-09-09T11:51:04;3.28;;;0.80;;
58466;SDS011;44255;49.244;7.726;2022-09-09T11:53:34;3.67;;;0.90;;
58466;SDS011;44255;49.244;7.726;2022-09-09T11:58:39;7.50;;;1.20;;
58466;SDS011;44255;49.244;7.726;2022-09-09T12:01:27;8.25;;;1.13;;
58466;SDS011;44255;49.244;7.726;2022-09-09T12:03:55;6.72;;;1.10;;
58466;SDS011;44255;49.244;7.726;2022-09-09T12:06:32;4.28;;;1.00;;
58466;SDS011;44255;49.244;7.726;2022-09-09T12:09:05;6.22;;;0.80;;
58466;SDS011;44255;49.244;7.726;2022-09-09T12:11:33;6.22;;;1.13;;
58466;SDS011;44255;49.244;7.726;2022-09-09T12:13:59;8.30;;;1.15;;
58466;SDS011;44255;49.244;7.726;2022-09-09T12:16:32;4.03;;;0.98;;
58466;SDS011;44255;49.244;7.726;2022-09-09T12:19:06;5.03;;;0.80;;
58466;SDS011;44255;49.244;7.726;2022-09-09T12:22:00;5.47;;;0.70;;
58466;SDS011;44255;49.244;7.726;2022-09-09T12:24:41;3.42;;;0.90;;
58466;SDS011;44255;49.244;7.726;2022-09-09T12:27:49;2.72;;;0.82;;
58466;SDS011;44255;49.244;7.726;2022-09-09T12:30:29;3.47;;;0.73;;
58466;SDS011;44255;49.244;7.726;2022-09-09T12:33:10;4.28;;;0.80;;
58466;SDS011;44255;49.244;7.726;2022-09-09T12:35:38;1.67;;;0.57;;
58466;SDS011;44255;49.244;7.726;2022-09-09T12:38:05;2.15;;;0.60;;
58466;SDS011;44255;49.244;7.726;2022-09-09T12:40:36;4.05;;;0.40;;
58466;SDS011;44255;49.244;7.726;2022-09-09T12:43:14;3.03;;;0.40;;
58466;SDS011;44255;49.244;7.726;2022-09-09T12:45:42;3.13;;;0.52;;
58466;SDS011;44255;49.244;7.726;2022-09-09T12:48:08;3.20;;;0.70;;
58466;SDS011;44255;49.244;7.726;2022-09-09T12:50:44;2.50;;;0.60;;
58466;SDS011;44255;49.244;7.726;2022-09-09T12:53:21;2.05;;;0.60;;
58466;SDS011;44255;49.244;7.726;2022-09-09T12:55:52;1.95;;;0.50;;
58466;SDS011;44255;49.244;7.726;2022-09-09T12:58:28;2.30;;;0.73;;
58466;SDS011;44255;49.244;7.726;2022-09-09T13:00:59;6.18;;;0.73;;
58466;SDS011;44255;49.244;7.726;2022-09-09T13:03:29;3.88;;;0.70;;
58466;SDS011;44255;49.244;7.726;2022-09-09T13:05:57;2.67;;;0.70;;
58466;SDS011;44255;49.244;7.726;2022-09-09T13:08:27;4.90;;;0.50;;
58466;SDS011;44255;49.244;7.726;2022-09-09T13:10:57;3.03;;;0.70;;
58466;SDS011;44255;49.244;7.726;2022-09-09T13:13:26;1.73;;;0.50;;
58466;SDS011;44255;49.244;7.726;2022-09-09T13:18:30;5.95;;;0.90;;
58466;SDS011;44255;49.244;7.726;2022-09-09T13:20:58;4.32;;;1.15;;
58466;SDS011;44255;49.244;7.726;2022-09-09T13:23:26;2.85;;;0.75;;
58466;SDS011;44255;49.244;7.726;2022-09-09T13:25:57;4.38;;;0.75;;
58466;SDS011;44255;49.244;7.726;2022-09-09T13:28:25;2.75;;;0.65;;
58466;SDS011;44255;49.244;7.726;2022-09-09T13:30:59;3.33;;;0.73;;
58466;SDS011;44255;49.244;7.726;2022-09-09T13:33:32;3.50;;;0.80;;
58466;SDS011;44255;49.244;7.726;2022-09-09T13:36:00;5.88;;;1.60;;
58466;SDS011;44255;49.244;7.726;2022-09-09T13:38:29;6.60;;;1.25;;
58466;SDS011;44255;49.244;7.726;2022-09-09T13:40:57;4.78;;;0.82;;
58466;SDS011;44255;49.244;7.726;2022-09-09T13:43:27;6.13;;;0.80;;
58466;SDS011;44255;49.244;7.726;2022-09-09T13:48:20;2.35;;;0.88;;
58466;SDS011;44255;49.244;7.726;2022-09-09T13:50:53;6.87;;;1.50;;
58466;SDS011;44255;49.244;7.726;2022-09-09T13:53:23;2.55;;;0.70;;
58466;SDS011;44255;49.244;7.726;2022-09-09T13:55:48;7.10;;;1.77;;
58466;SDS011;44255;49.244;7.726;2022-09-09T13:58:15;12.73;;;2.00;;
58466;SDS011;44255;49.244;7.726;2022-09-09T14:00:45;2.22;;;0.70;;
58466;SDS011;44255;49.244;7.726;2022-09-09T14:03:10;5.35;;;0.80;;
58466;SDS011;44255;49.244;7.726;2022-09-09T14:05:36;3.77;;;0.70;;
58466;SDS011;44255;49.244;7.726;2022-09-09T14:08:06;5.40;;;1.20;;
58466;SDS011;44255;49.244;7.726;2022-09-09T14:10:33;9.45;;;1.00;;
58466;SDS011;44255;49.244;7.726;2022-09-09T14:13:02;5.35;;;0.60;;
58466;SDS011;44255;49.244;7.726;2022-09-09T14:15:27;4.28;;;0.70;;
58466;SDS011;44255;49.244;7.726;2022-09-09T14:17:53;6.40;;;0.60;;
58466;SDS011;44255;49.244;7.726;2022-09-09T14:20:19;8.13;;;0.90;;
58466;SDS011;44255;49.244;7.726;2022-09-09T14:22:44;5.80;;;0.90;;
58466;SDS011;44255;49.244;7.726;2022-09-09T14:25:10;1.60;;;0.40;;
58466;SDS011;44255;49.244;7.726;2022-09-09T14:27:38;3.25;;;0.82;;
58466;SDS011;44255;49.244;7.726;2022-09-09T14:30:04;4.30;;;0.50;;
58466;SDS011;44255;49.244;7.726;2022-09-09T14:32:30;3.67;;;0.70;;
58466;SDS011;44255;49.244;7.726;2022-09-09T14:34:55;6.80;;;0.77;;
58466;SDS011;44255;49.244;7.726;2022-09-09T14:37:21;1.87;;;0.73;;
58466;SDS011;44255;49.244;7.726;2022-09-09T14:39:46;2.40;;;0.60;;
58466;SDS011;44255;49.244;7.726;2022-09-09T14:42:12;1.70;;;0.50;;
58466;SDS011;44255;49.244;7.726;2022-09-09T14:44:38;3.28;;;0.50;;
58466;SDS011;44255;49.244;7.726;2022-09-09T14:47:04;1.77;;;0.40;;
58466;SDS011;44255;49.244;7.726;2022-09-09T14:49:33;7.35;;;0.50;;
58466;SDS011;44255;49.244;7.726;2022-09-09T14:51:59;2.67;;;0.52;;
58466;SDS011;44255;49.244;7.726;2022-09-09T14:54:24;3.67;;;0.30;;
58466;SDS011;44255;49.244;7.726;2022-09-09T14:56:49;5.73;;;0.70;;
58466;SDS011;44255;49.244;7.726;2022-09-09T14:59:15;2.70;;;0.60;;
58466;SDS011;44255;49.244;7.726;2022-09-09T15:01:40;4.17;;;0.77;;
58466;SDS011;44255;49.244;7.726;2022-09-09T15:04:06;8.02;;;1.00;;
58466;SDS011;44255;49.244;7.726;2022-09-09T15:06:33;3.42;;;0.70;;
58466;SDS011;44255;49.244;7.726;2022-09-09T15:09:00;4.00;;;0.73;;
58466;SDS011;44255;49.244;7.726;2022-09-09T15:11:27;2.97;;;0.63;;
58466;SDS011;44255;49.244;7.726;2022-09-09T15:13:55;13.77;;;6.00;;
58466;SDS011;44255;49.244;7.726;2022-09-09T15:16:22;8.80;;;3.97;;
58466;SDS011;44255;49.244;7.726;2022-09-09T15:18:54;4.63;;;0.77;;
58466;SDS011;44255;49.244;7.726;2022-09-09T15:21:22;6.50;;;1.00;;
58466;SDS011;44255;49.244;7.726;2022-09-09T15:23:49;3.85;;;1.10;;
58466;SDS011;44255;49.244;7.726;2022-09-09T15:26:16;6.13;;;1.17;;
58466;SDS011;44255;49.244;7.726;2022-09-09T15:28:42;3.75;;;0.73;;
58466;SDS011;44255;49.244;7.726;2022-09-09T15:31:10;6.40;;;1.00;;
58466;SDS011;44255;49.244;7.726;2022-09-09T15:33:51;7.57;;;1.13;;
58466;SDS011;44255;49.244;7.726;2022-09-09T15:36:22;2.92;;;0.73;;
58466;SDS011;44255;49.244;7.726;2022-09-09T15:38:49;3.47;;;0.80;;
58466;SDS011;44255;49.244;7.726;2022-09-09T15:43:44;7.28;;;4.43;;
58466;SDS011;44255;49.244;7.726;2022-09-09T15:48:42;6.28;;;1.30;;
58466;SDS011;44255;49.244;7.726;2022-09-09T15:51:09;5.15;;;1.20;;
58466;SDS011;44255;49.244;7.726;2022-09-09T15:53:35;6.90;;;0.95;;
58466;SDS011;44255;49.244;7.726;2022-09-09T15:56:04;3.35;;;1.15;;
58466;SDS011;44255;49.244;7.726;2022-09-09T15:58:31;3.75;;;1.30;;
58466;SDS011;44255;49.244;7.726;2022-09-09T16:01:06;2.92;;;0.90;;
58466;SDS011;44255;49.244;7.726;2022-09-09T16:03:36;2.95;;;0.82;;
58466;SDS011;44255;49.244;7.726;2022-09-09T16:06:03;5.10;;;0.90;;
58466;SDS011;44255;49.244;7.726;2022-09-09T16:08:36;5.25;;;1.02;;
58466;SDS011;44255;49.244;7.726;2022-09-09T16:11:05;4.28;;;0.90;;
58466;SDS011;44255;49.244;7.726;2022-09-09T16:13:35;5.78;;;1.00;;
58466;SDS011;44255;49.244;7.726;2022-09-09T16:16:02;3.30;;;0.90;;
58466;SDS011;44255;49.244;7.726;2022-09-09T16:18:34;3.35;;;1.10;;
58466;SDS011;44255;49.244;7.726;2022-09-09T16:21:12;7.85;;;1.35;;
58466;SDS011;44255;49.244;7.726;2022-09-09T16:23:39;7.50;;;1.50;;
58466;SDS011;44255;49.244;7.726;2022-09-09T16:26:05;8.07;;;1.23;;
58466;SDS011;44255;49.244;7.726;2022-09-09T16:28:30;6.43;;;1.10;;
58466;SDS011;44255;49.244;7.726;2022-09-09T16:30:56;6.40;;;1.30;;
58466;SDS011;44255;49.244;7.726;2022-09-09T16:33:22;2.75;;;1.10;;
58466;SDS011;44255;49.244;7.726;2022-09-09T16:35:48;5.03;;;1.03;;
58466;SDS011;44255;49.244;7.726;2022-09-09T16:38:14;4.97;;;1.20;;
58466;SDS011;44255;49.244;7.726;2022-09-09T16:40:39;2.90;;;1.02;;
58466;SDS011;44255;49.244;7.726;2022-09-09T16:45:31;4.72;;;1.08;;
58466;SDS011;44255;49.244;7.726;2022-09-09T16:47:57;3.03;;;0.80;;
58466;SDS011;44255;49.244;7.726;2022-09-09T16:50:23;5.07;;;1.17;;
58466;SDS011;44255;49.244;7.726;2022-09-09T16:52:48;7.57;;;1.13;;
58466;SDS011;44255;49.244;7.726;2022-09-09T16:55:13;4.97;;;1.00;;
58466;SDS011;44255;49.244;7.726;2022-09-09T16:57:39;4.37;;;1.10;;
58466;SDS011;44255;49.244;7.726;2022-09-09T17:00:04;3.50;;;0.90;;
58466;SDS011;44255;49.244;7.726;2022-09-09T17:02:31;6.43;;;1.45;;
58466;SDS011;44255;49.244;7.726;2022-09-09T17:04:57;5.40;;;1.00;;
58466;SDS011;44255;49.244;7.726;2022-09-09T17:07:22;8.33;;;1.17;;
58466;SDS011;44255;49.244;7.726;2022-09-09T17:09:47;5.17;;;1.23;;
58466;SDS011;44255;49.244;7.726;2022-09-09T17:12:13;5.30;;;1.30;;
58466;SDS011;44255;49.244;7.726;2022-09-09T17:14:38;3.57;;;0.97;;
58466;SDS011;44255;49.244;7.726;2022-09-09T17:17:04;5.43;;;1.80;;
58466;SDS011;44255;49.244;7.726;2022-09-09T17:19:29;3.60;;;0.95;;
58466;SDS011;44255;49.244;7.726;2022-09-09T17:21:55;3.20;;;1.00;;
58466;SDS011;44255;49.244;7.726;2022-09-09T17:24:22;6.93;;;1.10;;
58466;SDS011;44255;49.244;7.726;2022-09-09T17:26:48;0.90;;;0.40;;
58466;SDS011;44255;49.244;7.726;2022-09-09T17:29:13;1.33;;;0.40;;
58466;SDS011;44255;49.244;7.726;2022-09-09T17:31:38;3.60;;;0.77;;
58466;SDS011;44255;49.244;7.726;2022-09-09T17:34:05;3.50;;;0.60;;
58466;SDS011;44255;49.244;7.726;2022-09-09T17:36:33;1.67;;;0.50;;
58466;SDS011;44255;49.244;7.726;2022-09-09T17:38:59;3.25;;;0.60;;
58466;SDS011;44255;49.244;7.726;2022-09-09T17:41:26;3.38;;;0.70;;
58466;SDS011;44255;49.244;7.726;2022-09-09T17:43:53;5.05;;;0.80;;
58466;SDS011;44255;49.244;7.726;2022-09-09T17:46:30;4.07;;;0.93;;
58466;SDS011;44255;49.244;7.726;2022-09-09T17:49:02;7.50;;;1.10;;
58466;SDS011;44255;49.244;7.726;2022-09-09T17:51:30;3.40;;;1.08;;
58466;SDS011;44255;49.244;7.726;2022-09-09T17:54:06;7.35;;;1.10;;
58466;SDS011;44255;49.244;7.726;2022-09-09T17:56:35;5.32;;;1.10;;
58466;SDS011;44255;49.244;7.726;2022-09-09T17:59:02;4.60;;;1.20;;
58466;SDS011;44255;49.244;7.726;2022-09-09T18:01:31;3.63;;;0.82;;
58466;SDS011;44255;49.244;7.726;2022-09-09T18:03:59;6.78;;;1.20;;
58466;SDS011;44255;49.244;7.726;2022-09-09T18:06:26;5.20;;;1.20;;
58466;SDS011;44255;49.244;7.726;2022-09-09T18:08:58;4.15;;;1.05;;
58466;SDS011;44255;49.244;7.726;2022-09-09T18:11:25;5.13;;;1.00;;
58466;SDS011;44255;49.244;7.726;2022-09-09T18:13:53;3.67;;;0.95;;
58466;SDS011;44255;49.244;7.726;2022-09-09T18:16:24;4.32;;;1.25;;
58466;SDS011;44255;49.244;7.726;2022-09-09T18:18:51;5.60;;;1.80;;
58466;SDS011;44255;49.244;7.726;2022-09-09T18:21:17;15.40;;;1.60;;
58466;SDS011;44255;49.244;7.726;2022-09-09T18:23:43;7.45;;;1.50;;
58466;SDS011;44255;49.244;7.726;2022-09-09T18:26:16;4.75;;;1.50;;
58466;SDS011;44255;49.244;7.726;2022-09-09T18:28:55;2.97;;;1.00;;
58466;SDS011;44255;49.244;7.726;2022-09-09T18:31:24;7.82;;;1.60;;
58466;SDS011;44255;49.244;7.726;2022-09-09T18:33:51;6.07;;;1.90;;
58466;SDS011;44255;49.244;7.726;2022-09-09T18:36:18;5.75;;;1.77;;
58466;SDS011;44255;49.244;7.726;2022-09-09T18:38:48;3.42;;;1.50;;
58466;SDS011;44255;49.244;7.726;2022-09-09T18:43:48;10.38;;;1.98;;
58466;SDS011;44255;49.244;7.726;2022-09-09T18:46:22;6.15;;;1.90;;
58466;SDS011;44255;49.244;7.726;2022-09-09T18:48:49;5.53;;;2.83;;
58466;SDS011;44255;49.244;7.726;2022-09-09T18:51:15;5.50;;;3.03;;
58466;SDS011;44255;49.244;7.726;2022-09-09T18:53:43;7.18;;;2.85;;
58466;SDS011;44255;49.244;7.726;2022-09-09T18:56:14;6.78;;;2.78;;
58466;SDS011;44255;49.244;7.726;2022-09-09T18:58:39;7.37;;;1.93;;
58466;SDS011;44255;49.244;7.726;2022-09-09T19:01:09;7.50;;;1.73;;
58466;SDS011;44255;49.244;7.726;2022-09-09T19:03:36;6.13;;;1.50;;
58466;SDS011;44255;49.244;7.726;2022-09-09T19:06:03;6.60;;;4.45;;
58466;SDS011;44255;49.244;7.726;2022-09-09T19:08:37;6.75;;;3.85;;
58466;SDS011;44255;49.244;7.726;2022-09-09T19:11:07;7.60;;;2.03;;
58466;SDS011;44255;49.244;7.726;2022-09-09T19:13:35;5.03;;;1.88;;
58466;SDS011;44255;49.244;7.726;2022-09-09T19:16:06;3.33;;;1.65;;
58466;SDS011;44255;49.244;7.726;2022-09-09T19:18:33;6.55;;;2.90;;
58466;SDS011;44255;49.244;7.726;2022-09-09T19:24:10;10.68;;;3.00;;
58466;SDS011;44255;49.244;7.726;2022-09-09T19:26:41;4.82;;;2.70;;
58466;SDS011;44255;49.244;7.726;2022-09-09T19:29:10;6.72;;;2.25;;
58466;SDS011;44255;49.244;7.726;2022-09-09T19:31:39;3.70;;;2.15;;
58466;SDS011;44255;49.244;7.726;2022-09-09T19:34:05;4.25;;;2.42;;
58466;SDS011;44255;49.244;7.726;2022-09-09T19:36:30;9.17;;;4.30;;
58466;SDS011;44255;49.244;7.726;2022-09-09T19:38:56;11.23;;;6.60;;
58466;SDS011;44255;49.244;7.726;2022-09-09T19:41:23;10.40;;;2.72;;
58466;SDS011;44255;49.244;7.726;2022-09-09T19:43:50;5.20;;;2.58;;
58466;SDS011;44255;49.244;7.726;2022-09-09T19:46:16;8.85;;;2.47;;
58466;SDS011;44255;49.244;7.726;2022-09-09T19:48:42;5.80;;;2.30;;
58466;SDS011;44255;49.244;7.726;2022-09-09T19:51:10;6.60;;;2.85;;
58466;SDS011;44255;49.244;7.726;2022-09-09T19:53:44;4.28;;;2.85;;
58466;SDS011;44255;49.244;7.726;2022-09-09T19:56:11;8.38;;;3.08;;